Time;durP1;ratioP1;P1;durP2;ratioP2;P2;SDS_P1;SDS_P2;PMS_P1;PMS_P2;Temp;Humidity;BMP_temperature;BMP_pressure;BME280_temperature;BME280_humidity;BME280_pressure;Samples;Min_cycle;Max_cycle;Signal;HPM_P1;HPM_P2
2024/04/17 00:01:34;;;;;;;1.40;0.70;;;21.80;86.00;;;;;;5309927;26;20573;-55
2024/04/17 00:04:05;;;;;;;0.90;0.60;;;21.30;85.40;;;;;;5319881;26;23348;-53
2024/04/17 00:06:39;;;;;;;0.90;0.60;;;21.10;84.60;;;;;;5323153;26;21384;-53
2024/04/17 00:09:09;;;;;;;1.00;0.70;;;21.30;85.10;;;;;;5326243;26;20477;-50
2024/04/17 00:11:37;;;;;;;1.00;0.70;;;21.50;85.80;;;;;;5323058;26;21963;-52
2024/04/17 00:14:05;;;;;;;0.93;0.60;;;21.20;85.60;;;;;;5309139;26;20471;-48
2024/04/17 00:16:35;;;;;;;0.90;0.60;;;21.20;85.80;;;;;;5319561;26;22413;-47
2024/04/17 00:19:03;;;;;;;1.00;0.60;;;21.00;85.40;;;;;;5325952;26;21252;-52
2024/04/17 00:21:32;;;;;;;2.27;1.00;;;21.60;86.50;;;;;;5321820;26;20524;-52
2024/04/17 00:23:57;;;;;;;0.90;0.70;;;21.80;86.60;;;;;;5312733;26;20465;-49
2024/04/17 00:26:26;;;;;;;0.90;0.70;;;21.60;86.60;;;;;;5321807;26;21865;-50
2024/04/17 00:28:53;;;;;;;1.83;0.70;;;21.00;85.70;;;;;;5323495;26;20279;-50
2024/04/17 00:31:23;;;;;;;0.90;0.60;;;21.60;86.40;;;;;;5301907;26;20534;-53
2024/04/17 00:34:01;;;;;;;0.90;0.60;;;20.90;85.90;;;;;;5310773;26;20473;-47
2024/04/17 00:36:32;;;;;;;1.10;0.70;;;20.90;85.40;;;;;;5315734;26;21303;-54
2024/04/17 00:38:58;;;;;;;1.00;0.70;;;21.30;86.50;;;;;;5305571;26;21004;-49
2024/04/17 00:41:26;;;;;;;1.13;0.70;;;20.90;86.20;;;;;;5314303;26;20480;-53
2024/04/17 00:43:52;;;;;;;1.23;0.77;;;20.90;86.50;;;;;;5302255;26;20250;-52
2024/04/17 00:46:23;;;;;;;1.20;0.70;;;20.90;86.90;;;;;;5312346;26;21272;-52
2024/04/17 00:48:48;;;;;;;1.20;0.60;;;21.50;86.90;;;;;;5309982;26;21025;-52
2024/04/17 00:51:19;;;;;;;0.97;0.60;;;21.50;87.50;;;;;;5311366;26;20333;-51
2024/04/17 00:53:50;;;;;;;1.00;0.70;;;21.10;86.90;;;;;;5310467;26;20959;-52
2024/04/17 00:56:21;;;;;;;0.90;0.60;;;21.50;88.00;;;;;;5308263;26;20858;-48
2024/04/17 00:58:49;;;;;;;2.13;0.90;;;20.80;86.60;;;;;;5310221;26;20238;-49
2024/04/17 01:01:19;;;;;;;1.00;0.70;;;20.20;86.50;;;;;;5298355;26;20720;-49
2024/04/17 01:03:45;;;;;;;0.90;0.63;;;21.80;88.40;;;;;;5310552;26;20971;-51
2024/04/17 01:06:13;;;;;;;2.60;0.60;;;20.00;86.60;;;;;;5312144;26;22731;-49
2024/04/17 01:08:39;;;;;;;1.10;0.60;;;19.90;86.20;;;;;;5298625;26;23157;-50
2024/04/17 01:11:13;;;;;;;1.00;0.70;;;20.70;87.30;;;;;;5300187;26;20866;-54
2024/04/17 01:13:39;;;;;;;0.90;0.70;;;20.60;84.10;;;;;;5314806;26;20235;-53
2024/04/17 01:16:08;;;;;;;0.90;0.60;;;20.70;87.70;;;;;;5296510;26;21257;-50
2024/04/17 01:18:34;;;;;;;0.90;0.60;;;20.60;87.40;;;;;;5306034;26;20239;-53
2024/04/17 01:21:09;;;;;;;1.00;0.70;;;21.00;87.90;;;;;;5313199;26;20235;-50
2024/04/17 01:23:34;;;;;;;0.90;0.70;;;20.60;87.60;;;;;;5306615;26;20257;-51
2024/04/17 01:26:13;;;;;;;1.00;0.70;;;20.50;87.80;;;;;;5304965;26;20928;-53
2024/04/17 01:28:38;;;;;;;1.67;0.80;;;20.90;87.70;;;;;;5308966;26;22946;-52
2024/04/17 01:31:08;;;;;;;1.57;1.47;;;20.50;87.90;;;;;;5313798;26;20254;-50
2024/04/17 01:33:39;;;;;;;1.00;0.70;;;20.70;88.30;;;;;;5307381;26;20355;-51
2024/04/17 01:36:11;;;;;;;1.00;0.70;;;20.50;87.80;;;;;;5295084;26;21828;-47
2024/04/17 01:38:37;;;;;;;1.00;0.80;;;20.80;87.70;;;;;;5307333;26;21296;-52
2024/04/17 01:41:09;;;;;;;1.00;0.80;;;20.70;88.80;;;;;;5294746;26;21033;-51
2024/04/17 01:43:35;;;;;;;0.90;0.60;;;20.70;88.70;;;;;;5307680;26;20343;-48
2024/04/17 01:46:05;;;;;;;1.00;0.77;;;21.00;89.30;;;;;;5315401;26;20239;-49
2024/04/17 01:48:31;;;;;;;0.82;0.60;;;20.70;88.50;;;;;;5300603;26;22535;-52
2024/04/17 01:51:00;;;;;;;2.10;0.70;;;21.20;89.60;;;;;;5315530;26;21140;-48
2024/04/17 01:53:25;;;;;;;2.28;0.80;;;20.20;88.20;;;;;;5308322;26;20811;-48
2024/04/17 01:55:54;;;;;;;0.90;0.60;;;20.50;89.00;;;;;;5308412;26;21471;-51
2024/04/17 01:58:22;;;;;;;1.10;0.80;;;20.30;89.00;;;;;;5300441;26;20731;-50
2024/04/17 02:00:50;;;;;;;1.80;0.82;;;20.30;89.30;;;;;;5308798;26;22407;-48
2024/04/17 02:03:16;;;;;;;1.20;0.80;;;20.60;89.50;;;;;;5309505;26;20379;-52
2024/04/17 02:05:47;;;;;;;1.00;0.70;;;20.40;89.70;;;;;;5305550;26;20273;-51
2024/04/17 02:08:15;;;;;;;1.23;0.70;;;20.30;89.30;;;;;;5297432;26;20236;-51
2024/04/17 02:10:45;;;;;;;0.90;0.70;;;20.30;89.60;;;;;;5288320;26;20469;-49
2024/04/17 02:13:11;;;;;;;0.90;0.70;;;20.30;89.70;;;;;;5299795;26;22010;-47
2024/04/17 02:15:42;;;;;;;1.40;0.60;;;20.40;90.00;;;;;;5317111;26;20274;-50
2024/04/17 02:18:10;;;;;;;1.00;0.77;;;20.90;90.20;;;;;;5310220;26;21364;-49
2024/04/17 02:20:39;;;;;;;1.10;0.70;;;20.10;89.80;;;;;;5313714;26;20253;-49
2024/04/17 02:23:04;;;;;;;1.10;0.70;;;20.60;90.10;;;;;;5306772;26;22315;-48
2024/04/17 02:25:33;;;;;;;0.90;0.60;;;20.50;90.30;;;;;;5314354;26;20967;-50
2024/04/17 02:27:58;;;;;;;0.90;0.70;;;20.40;90.00;;;;;;5303980;26;21105;-52
2024/04/17 02:30:27;;;;;;;1.23;0.70;;;20.30;90.10;;;;;;5310669;26;21079;-49
2024/04/17 02:32:55;;;;;;;1.20;0.65;;;20.00;89.70;;;;;;5317354;26;22453;-51
2024/04/17 02:35:26;;;;;;;1.10;0.70;;;20.10;90.20;;;;;;5315318;26;20337;-52
2024/04/17 02:37:54;;;;;;;0.90;0.60;;;20.40;90.30;;;;;;5294782;26;20270;-53
2024/04/17 02:40:23;;;;;;;0.90;0.70;;;20.40;90.40;;;;;;5306842;26;21510;-50
2024/04/17 02:42:51;;;;;;;0.90;0.70;;;20.00;90.20;;;;;;5301051;26;20266;-48
2024/04/17 02:45:19;;;;;;;1.27;0.88;;;20.20;90.00;;;;;;5324292;26;20632;-52
2024/04/17 02:47:49;;;;;;;1.05;0.70;;;20.10;90.20;;;;;;5301395;26;22750;-50
2024/04/17 02:50:22;;;;;;;1.00;0.70;;;20.70;90.60;;;;;;5306217;26;20289;-47
2024/04/17 02:52:48;;;;;;;1.55;0.70;;;20.80;91.00;;;;;;5301423;26;20869;-51
2024/04/17 02:55:19;;;;;;;1.20;0.80;;;19.90;90.40;;;;;;5320552;26;21768;-48
2024/04/17 02:57:48;;;;;;;1.00;0.70;;;19.80;90.70;;;;;;5304084;26;20283;-51
2024/04/17 03:00:17;;;;;;;1.10;0.80;;;20.10;90.40;;;;;;5315356;26;20242;-48
2024/04/17 03:02:43;;;;;;;1.20;0.70;;;20.00;90.60;;;;;;5310716;26;20365;-49
2024/04/17 03:05:11;;;;;;;1.10;0.80;;;20.10;90.50;;;;;;5322481;26;20702;-49
2024/04/17 03:07:40;;;;;;;1.63;0.88;;;19.90;89.90;;;;;;5312157;26;25515;-47
2024/04/17 03:10:09;;;;;;;1.00;0.60;;;20.10;90.20;;;;;;5319806;26;22234;-53
2024/04/17 03:12:37;;;;;;;1.55;0.70;;;19.90;90.10;;;;;;5315214;26;20234;-48
2024/04/17 03:15:04;;;;;;;0.80;0.60;;;19.70;90.10;;;;;;5315863;26;21521;-48
2024/04/17 03:17:32;;;;;;;0.90;0.60;;;20.20;90.10;;;;;;5312604;26;20234;-49
2024/04/17 03:19:59;;;;;;;1.00;0.70;;;20.60;90.40;;;;;;5304029;26;20242;-49
2024/04/17 03:22:31;;;;;;;1.30;0.75;;;20.60;90.60;;;;;;5301036;26;20238;-49
2024/04/17 03:25:00;;;;;;;4.35;0.85;;;20.60;90.50;;;;;;5304595;26;20243;-47
2024/04/17 03:27:28;;;;;;;2.17;0.70;;;20.40;90.60;;;;;;5304991;26;20235;-48
2024/04/17 03:29:54;;;;;;;1.02;0.70;;;20.20;90.40;;;;;;5307273;26;20293;-47
2024/04/17 03:32:25;;;;;;;1.00;0.70;;;19.80;90.20;;;;;;5315120;26;20951;-48
2024/04/17 03:34:52;;;;;;;1.00;0.70;;;19.40;90.20;;;;;;5309469;26;20259;-50
2024/04/17 03:37:22;;;;;;;1.02;0.63;;;20.40;90.70;;;;;;5305126;26;20879;-47
2024/04/17 03:39:51;;;;;;;1.00;0.73;;;18.90;90.10;;;;;;5300619;26;21123;-48
2024/04/17 03:42:22;;;;;;;1.10;0.80;;;19.90;90.50;;;;;;5305665;26;20348;-53
2024/04/17 03:44:50;;;;;;;2.25;1.00;;;20.10;90.80;;;;;;5306962;26;20283;-51
2024/04/17 03:47:18;;;;;;;1.00;0.70;;;19.70;90.40;;;;;;5310650;26;20238;-51
2024/04/17 03:49:46;;;;;;;1.38;0.70;;;20.00;90.60;;;;;;5311801;26;20252;-51
2024/04/17 03:52:14;;;;;;;0.90;0.70;;;19.70;90.20;;;;;;5307292;26;20246;-48
2024/04/17 03:54:42;;;;;;;0.90;0.70;;;20.40;90.80;;;;;;5314292;26;20357;-48
2024/04/17 03:57:10;;;;;;;0.90;0.70;;;20.30;91.10;;;;;;5314674;26;22257;-54
2024/04/17 03:59:40;;;;;;;0.80;0.60;;;19.70;90.60;;;;;;5298104;26;20409;-48
2024/04/17 04:02:12;;;;;;;2.03;0.80;;;20.30;91.20;;;;;;5309765;26;20991;-51
2024/04/17 04:04:38;;;;;;;1.10;0.80;;;19.80;90.60;;;;;;5311091;26;20999;-48
2024/04/17 04:07:09;;;;;;;1.00;0.70;;;19.70;90.80;;;;;;5317609;26;20239;-51
2024/04/17 04:09:35;;;;;;;1.58;1.00;;;20.00;90.80;;;;;;5311323;26;21504;-50
2024/04/17 04:12:04;;;;;;;0.90;0.70;;;19.90;90.90;;;;;;5307490;26;20257;-48
2024/04/17 04:14:32;;;;;;;1.30;0.90;;;20.00;90.90;;;;;;5294731;26;20469;-49
2024/04/17 04:17:01;;;;;;;1.10;0.88;;;19.60;90.70;;;;;;5309775;26;20445;-54
2024/04/17 04:19:29;;;;;;;0.90;0.70;;;19.80;91.10;;;;;;5308279;26;20268;-49
2024/04/17 04:21:55;;;;;;;1.00;0.60;;;19.70;90.90;;;;;;5311526;26;20976;-48
2024/04/17 04:24:23;;;;;;;1.10;0.67;;;20.20;91.30;;;;;;5302611;26;20230;-53
2024/04/17 04:26:49;;;;;;;1.40;0.70;;;20.10;91.20;;;;;;5298059;26;21132;-53
2024/04/17 04:29:17;;;;;;;1.20;0.77;;;19.60;91.40;;;;;;5308201;26;20230;-55
2024/04/17 04:31:43;;;;;;;1.15;0.70;;;20.10;91.30;;;;;;5316833;26;20475;-50
2024/04/17 04:34:14;;;;;;;7.13;0.77;;;20.40;92.10;;;;;;5306934;26;20250;-49
2024/04/17 04:36:42;;;;;;;2.85;0.70;;;20.40;92.20;;;;;;5285055;26;28754;-46
2024/04/17 04:39:10;;;;;;;1.30;0.80;;;19.80;92.60;;;;;;5220325;26;20230;-47
2024/04/17 04:41:36;;;;;;;1.00;0.70;;;19.90;92.30;;;;;;5196475;26;20500;-47
2024/04/17 04:44:06;;;;;;;0.90;0.60;;;19.90;92.40;;;;;;5198552;26;22176;-47
2024/04/17 04:46:34;;;;;;;1.13;0.80;;;19.90;92.70;;;;;;5222914;26;20519;-51
2024/04/17 04:49:02;;;;;;;0.90;0.70;;;19.50;92.20;;;;;;5220881;26;20268;-48
2024/04/17 04:51:31;;;;;;;1.10;0.80;;;20.20;92.10;;;;;;5224042;26;20423;-44
2024/04/17 04:53:59;;;;;;;1.10;0.88;;;20.00;92.20;;;;;;5223127;26;20273;-46
2024/04/17 04:56:27;;;;;;;1.00;0.60;;;19.60;92.70;;;;;;5215074;26;20273;-47
2024/04/17 04:58:57;;;;;;;3.58;0.80;;;20.20;92.10;;;;;;5217859;26;20463;-52
2024/04/17 05:01:25;;;;;;;4.82;0.80;;;19.30;91.90;;;;;;5205129;26;27319;-53
2024/04/17 05:03:53;;;;;;;4.17;0.90;;;18.80;92.40;;;;;;5201320;26;20844;-50
2024/04/17 05:06:19;;;;;;;1.20;0.80;;;19.60;92.70;;;;;;5202900;26;21195;-45
2024/04/17 05:08:53;;;;;;;2.13;0.80;;;19.90;93.20;;;;;;5218285;26;20476;-44
2024/04/17 05:11:22;;;;;;;2.00;0.80;;;19.50;92.70;;;;;;5216338;26;20239;-47
2024/04/17 05:13:50;;;;;;;1.00;0.70;;;20.00;92.10;;;;;;5225870;26;21091;-47
2024/04/17 05:16:16;;;;;;;1.00;0.60;;;19.90;92.30;;;;;;5222456;26;20599;-48
2024/04/17 05:18:45;;;;;;;1.40;0.70;;;19.30;92.70;;;;;;5221951;26;20463;-44
2024/04/17 05:21:11;;;;;;;1.60;1.03;;;18.80;92.70;;;;;;5221211;26;21113;-46
2024/04/17 05:23:40;;;;;;;1.00;0.70;;;19.30;93.50;;;;;;5226563;26;20459;-46
2024/04/17 05:26:10;;;;;;;1.27;0.80;;;19.20;93.00;;;;;;5218071;26;22036;-47
2024/04/17 05:28:43;;;;;;;4.30;0.70;;;19.50;93.60;;;;;;5222489;26;23000;-45
2024/04/17 05:31:14;;;;;;;0.90;0.70;;;19.50;93.90;;;;;;5212922;26;20879;-46
2024/04/17 05:33:42;;;;;;;2.63;1.20;;;19.10;93.90;;;;;;5227226;26;20833;-47
2024/04/17 05:36:10;;;;;;;1.87;1.23;;;20.10;92.80;;;;;;5228579;26;21162;-48
2024/04/17 05:38:41;;;;;;;2.60;1.60;;;19.40;92.00;;;;;;5235964;26;20862;-50
2024/04/17 05:41:12;;;;;;;1.37;1.27;;;19.40;91.00;;;;;;5229930;26;21301;-51
2024/04/17 05:43:43;;;;;;;2.80;1.50;;;19.70;89.90;;;;;;5232747;26;22810;-50
2024/04/17 05:46:17;;;;;;;2.90;1.20;;;19.80;86.10;;;;;;5232305;26;22150;-50
2024/04/17 05:48:45;;;;;;;2.80;1.42;;;19.60;86.00;;;;;;5212137;26;21094;-48
2024/04/17 05:51:11;;;;;;;2.30;1.27;;;19.20;87.20;;;;;;5230115;26;21003;-45
2024/04/17 05:53:40;;;;;;;2.93;1.10;;;19.30;88.60;;;;;;5229385;26;20239;-45
2024/04/17 05:56:09;;;;;;;1.48;1.08;;;19.20;88.50;;;;;;5236258;26;20558;-49
2024/04/17 05:58:37;;;;;;;2.00;1.20;;;19.30;88.50;;;;;;5244707;26;20949;-49
2024/04/17 06:01:06;;;;;;;1.98;1.20;;;19.50;90.00;;;;;;5248862;26;20709;-46
2024/04/17 06:03:38;;;;;;;2.83;1.40;;;19.60;90.30;;;;;;5242560;26;20272;-50
2024/04/17 06:06:04;;;;;;;1.50;1.17;;;19.20;90.10;;;;;;5229651;26;21508;-49
2024/04/17 06:08:34;;;;;;;5.77;1.40;;;19.40;90.30;;;;;;5334159;26;20512;-45
2024/04/17 06:11:00;;;;;;;2.90;1.00;;;19.30;90.30;;;;;;5421559;26;21718;-47
2024/04/17 06:13:31;;;;;;;2.73;1.10;;;19.20;90.70;;;;;;5438879;26;20230;-47
2024/04/17 06:15:59;;;;;;;1.95;0.90;;;19.30;90.80;;;;;;5428440;26;20619;-43
2024/04/17 06:18:27;;;;;;;2.50;1.30;;;19.40;91.00;;;;;;5270812;26;20238;-45
2024/04/17 06:20:55;;;;;;;1.20;1.00;;;19.40;91.10;;;;;;5222479;26;26832;-44
2024/04/17 06:23:27;;;;;;;2.28;1.17;;;19.40;91.30;;;;;;5253807;26;21210;-45
2024/04/17 06:25:55;;;;;;;1.20;0.98;;;19.40;91.10;;;;;;5243894;26;20895;-47
2024/04/17 06:28:26;;;;;;;3.30;1.10;;;20.20;92.00;;;;;;5249659;26;20835;-50
2024/04/17 06:30:55;;;;;;;2.55;1.10;;;19.80;92.10;;;;;;5239491;26;20341;-49
2024/04/17 06:33:25;;;;;;;1.52;0.90;;;20.60;92.50;;;;;;5250115;26;28027;-43
2024/04/17 06:35:51;;;;;;;3.67;1.15;;;20.00;92.20;;;;;;5245451;26;20384;-48
2024/04/17 06:38:19;;;;;;;1.50;1.20;;;20.30;92.40;;;;;;5249288;26;20868;-48
2024/04/17 06:40:55;;;;;;;1.10;0.85;;;19.50;91.80;;;;;;5235542;26;26201;-49
2024/04/17 06:43:24;;;;;;;2.60;1.30;;;19.70;92.60;;;;;;5247511;26;20983;-46
2024/04/17 06:46:00;;;;;;;2.80;1.00;;;19.30;91.50;;;;;;5240635;26;20246;-42
2024/04/17 06:48:31;;;;;;;2.28;1.10;;;19.90;92.20;;;;;;5242538;26;21218;-44
2024/04/17 06:50:59;;;;;;;4.43;1.37;;;19.60;90.60;;;;;;5232527;26;20281;-49
2024/04/17 06:53:29;;;;;;;1.48;0.77;;;20.30;92.50;;;;;;5243079;26;20496;-48
2024/04/17 06:55:59;;;;;;;1.60;1.10;;;19.80;91.60;;;;;;5206517;26;20852;-45
2024/04/17 06:58:28;;;;;;;1.65;0.90;;;20.20;91.80;;;;;;5223694;26;20491;-47
2024/04/17 07:00:59;;;;;;;3.23;1.37;;;20.40;91.80;;;;;;5235109;26;20306;-47
2024/04/17 07:03:27;;;;;;;4.57;1.70;;;20.00;85.60;;;;;;5219079;26;20504;-47
2024/04/17 07:06:01;;;;;;;3.27;1.53;;;20.10;81.40;;;;;;5222731;26;21082;-45
2024/04/17 07:08:32;;;;;;;3.07;1.50;;;20.50;81.30;;;;;;5217844;26;20475;-49
2024/04/17 07:11:01;;;;;;;3.17;1.53;;;20.40;80.40;;;;;;5217843;26;20476;-45
2024/04/17 07:13:34;;;;;;;4.00;1.57;;;20.40;79.20;;;;;;5214996;26;22538;-45
2024/04/17 07:16:04;;;;;;;2.17;1.45;;;20.00;78.50;;;;;;5385723;26;20574;-45
2024/04/17 07:18:33;;;;;;;5.90;1.60;;;20.20;78.00;;;;;;5436603;26;20238;-44
2024/04/17 07:20:59;;;;;;;3.47;1.90;;;20.20;78.50;;;;;;5433478;26;20456;-42
2024/04/17 07:23:31;;;;;;;2.30;1.30;;;20.80;79.60;;;;;;5441705;26;20238;-44
2024/04/17 07:26:00;;;;;;;8.13;2.53;;;20.10;77.80;;;;;;5437509;26;20721;-43
2024/04/17 07:28:33;;;;;;;3.60;2.00;;;20.20;76.70;;;;;;5416144;26;20226;-45
2024/04/17 07:31:02;;;;;;;4.33;1.20;;;20.20;77.70;;;;;;5416321;26;20579;-43
2024/04/17 07:33:33;;;;;;;3.67;2.15;;;20.30;79.50;;;;;;5426457;26;20480;-46
2024/04/17 07:36:05;;;;;;;4.53;1.20;;;20.30;80.20;;;;;;5438286;26;21984;-44
2024/04/17 07:38:33;;;;;;;3.00;1.40;;;20.70;80.70;;;;;;5422112;26;20452;-46
2024/04/17 07:41:01;;;;;;;5.30;1.40;;;20.60;81.10;;;;;;5418095;26;20529;-46
2024/04/17 07:43:30;;;;;;;1.83;1.10;;;20.60;81.50;;;;;;5412811;26;20487;-49
2024/04/17 07:46:09;;;;;;;2.53;1.50;;;19.80;81.20;;;;;;5428627;26;20814;-43
2024/04/17 07:48:38;;;;;;;3.70;1.40;;;21.10;83.10;;;;;;5419992;26;21013;-45
2024/04/17 07:51:08;;;;;;;4.30;1.67;;;20.20;82.80;;;;;;5422073;26;20326;-46
2024/04/17 07:53:42;;;;;;;3.23;1.30;;;20.40;82.30;;;;;;5432006;26;21122;-46
2024/04/17 07:56:08;;;;;;;3.88;1.40;;;20.40;83.50;;;;;;5416657;26;22192;-45
2024/04/17 07:58:36;;;;;;;3.20;1.45;;;20.30;82.90;;;;;;5416753;26;20881;-47
2024/04/17 08:01:06;;;;;;;1.70;0.88;;;20.40;83.50;;;;;;5429384;26;20239;-49
2024/04/17 08:03:34;;;;;;;2.80;1.40;;;20.40;83.80;;;;;;5432094;26;20387;-43
2024/04/17 08:06:00;;;;;;;3.42;1.38;;;20.70;84.10;;;;;;5427231;26;20710;-47
2024/04/17 08:08:29;;;;;;;1.87;1.50;;;21.20;86.00;;;;;;5430011;26;20325;-42
2024/04/17 08:10:54;;;;;;;1.45;1.08;;;20.40;84.10;;;;;;5439051;26;21047;-42
2024/04/17 08:13:23;;;;;;;2.43;1.20;;;20.40;84.00;;;;;;5433638;26;20305;-46
2024/04/17 08:15:52;;;;;;;2.60;1.10;;;20.50;82.50;;;;;;5434516;26;20981;-51
2024/04/17 08:18:23;;;;;;;2.97;1.43;;;20.60;82.60;;;;;;5430413;26;20789;-46
2024/04/17 08:20:54;;;;;;;1.90;1.17;;;20.60;82.50;;;;;;5429560;26;20483;-49
2024/04/17 08:23:25;;;;;;;1.80;1.10;;;20.70;82.00;;;;;;5407387;26;20239;-44
2024/04/17 08:25:53;;;;;;;2.67;1.20;;;20.60;81.90;;;;;;5426671;26;20280;-47
2024/04/17 08:28:22;;;;;;;2.30;0.95;;;20.90;82.40;;;;;;5433935;26;20239;-44
2024/04/17 08:30:52;;;;;;;1.75;1.20;;;20.70;82.80;;;;;;5423395;26;20230;-44
2024/04/17 08:33:24;;;;;;;3.83;1.30;;;20.80;82.30;;;;;;5441549;26;21102;-49
2024/04/17 08:35:53;;;;;;;1.60;0.80;;;20.80;81.10;;;;;;5431207;26;20234;-43
2024/04/17 08:38:22;;;;;;;1.97;1.00;;;20.90;80.90;;;;;;5435088;26;20515;-44
2024/04/17 08:40:47;;;;;;;1.90;1.13;;;20.80;80.20;;;;;;5427212;26;20464;-44
2024/04/17 08:43:25;;;;;;;1.93;1.20;;;20.90;80.50;;;;;;5417185;26;20525;-46
2024/04/17 08:46:00;;;;;;;1.27;0.90;;;21.50;81.70;;;;;;5440161;26;20265;-51
2024/04/17 08:48:34;;;;;;;1.97;1.10;;;21.10;80.40;;;;;;5421375;26;20509;-45
2024/04/17 08:51:09;;;;;;;3.60;1.20;;;20.80;79.90;;;;;;5418720;26;21457;-49
2024/04/17 08:53:39;;;;;;;2.37;1.27;;;21.00;80.20;;;;;;5426580;26;22210;-50
2024/04/17 08:56:07;;;;;;;1.40;1.13;;;21.00;80.00;;;;;;5429445;26;20739;-47
2024/04/17 08:58:35;;;;;;;2.03;1.17;;;21.00;79.60;;;;;;5401929;26;21270;-48
2024/04/17 09:01:08;;;;;;;2.60;1.37;;;21.00;79.80;;;;;;5420927;26;20791;-46
2024/04/17 09:03:47;;;;;;;2.07;1.10;;;21.10;79.60;;;;;;5431436;26;20524;-48
2024/04/17 09:06:13;;;;;;;2.00;1.00;;;21.10;79.70;;;;;;5436569;26;20464;-47
2024/04/17 09:08:43;;;;;;;2.17;1.33;;;21.80;81.00;;;;;;5439793;26;21322;-48
2024/04/17 09:11:10;;;;;;;1.77;1.27;;;21.50;80.30;;;;;;5428318;26;20479;-48
2024/04/17 09:13:38;;;;;;;1.77;1.00;;;21.40;80.30;;;;;;5435835;26;20471;-47
2024/04/17 09:16:11;;;;;;;1.40;1.00;;;21.20;79.60;;;;;;5422514;26;20459;-49
2024/04/17 09:18:42;;;;;;;1.20;1.00;;;21.20;78.70;;;;;;5416029;26;20530;-46
2024/04/17 09:21:10;;;;;;;1.57;1.33;;;21.20;79.20;;;;;;5426314;26;20552;-45
2024/04/17 09:23:38;;;;;;;1.90;1.30;;;21.30;79.60;;;;;;5444495;26;20457;-46
2024/04/17 09:26:12;;;;;;;1.47;1.00;;;21.40;79.80;;;;;;5411979;26;20515;-46
2024/04/17 09:28:40;;;;;;;1.43;1.03;;;21.40;79.50;;;;;;5418719;26;20460;-48
2024/04/17 09:31:06;;;;;;;1.60;1.10;;;21.40;80.10;;;;;;5429816;26;20860;-45
2024/04/17 09:33:35;;;;;;;1.87;1.27;;;21.30;80.00;;;;;;5436310;26;20542;-46
2024/04/17 09:36:05;;;;;;;1.60;1.00;;;22.00;80.80;;;;;;5411389;26;20698;-44
2024/04/17 09:38:35;;;;;;;3.20;1.10;;;21.40;80.80;;;;;;5438663;26;20469;-47
2024/04/17 09:41:01;;;;;;;3.43;1.17;;;22.10;80.90;;;;;;5407888;26;20523;-45
2024/04/17 09:43:31;;;;;;;1.47;0.97;;;21.20;79.70;;;;;;5427923;26;20467;-44
2024/04/17 09:45:59;;;;;;;1.20;0.90;;;21.40;79.70;;;;;;5421384;26;20246;-47
2024/04/17 09:48:29;;;;;;;1.60;1.17;;;21.40;80.00;;;;;;5435931;26;20460;-44
2024/04/17 09:51:00;;;;;;;1.27;0.90;;;21.40;79.80;;;;;;5432500;26;20460;-51
2024/04/17 09:53:37;;;;;;;3.47;1.03;;;21.60;80.10;;;;;;5430965;26;20515;-44
2024/04/17 09:56:04;;;;;;;2.63;1.13;;;21.50;79.40;;;;;;5434192;26;20483;-46
2024/04/17 09:58:34;;;;;;;1.30;0.70;;;21.90;79.80;;;;;;5435495;26;20586;-48
2024/04/17 10:01:02;;;;;;;3.07;0.90;;;21.70;79.60;;;;;;5411403;26;20990;-46
2024/04/17 10:03:32;;;;;;;1.30;1.10;;;21.80;80.30;;;;;;5431022;26;20571;-45
2024/04/17 10:06:00;;;;;;;1.43;1.00;;;21.60;80.10;;;;;;5415867;26;20451;-47
2024/04/17 10:08:38;;;;;;;1.63;1.03;;;21.80;80.30;;;;;;5429953;26;20464;-45
2024/04/17 10:11:08;;;;;;;1.63;1.00;;;21.90;80.50;;;;;;5420290;26;21141;-48
2024/04/17 10:13:38;;;;;;;1.73;1.00;;;21.90;80.40;;;;;;5432119;26;20460;-45
2024/04/17 10:16:04;;;;;;;1.17;0.90;;;21.80;80.10;;;;;;5414769;26;20546;-45
2024/04/17 10:18:35;;;;;;;2.30;1.13;;;21.90;80.00;;;;;;5428997;26;20930;-45
2024/04/17 10:21:01;;;;;;;2.97;1.40;;;21.50;80.10;;;;;;5424479;26;20914;-42
2024/04/17 10:23:31;;;;;;;3.13;1.20;;;22.20;79.80;;;;;;5438342;26;21683;-47
2024/04/17 10:26:01;;;;;;;2.97;1.10;;;21.90;78.90;;;;;;5423652;26;20483;-47
2024/04/17 10:28:30;;;;;;;2.30;1.10;;;22.60;80.10;;;;;;5428695;26;20553;-45
2024/04/17 10:30:56;;;;;;;1.70;1.00;;;22.20;80.00;;;;;;5423375;26;20600;-43
2024/04/17 10:33:32;;;;;;;1.00;0.70;;;21.90;79.80;;;;;;5418319;26;21647;-47
2024/04/17 10:36:07;;;;;;;1.33;0.90;;;22.10;79.80;;;;;;5426543;26;20898;-45
2024/04/17 10:38:37;;;;;;;1.30;0.90;;;22.10;80.00;;;;;;5438948;26;20466;-48
2024/04/17 10:41:10;;;;;;;1.47;0.80;;;22.00;79.80;;;;;;5420656;26;20472;-43
2024/04/17 10:43:39;;;;;;;1.27;1.00;;;22.20;79.70;;;;;;5420665;26;20656;-43
2024/04/17 10:46:06;;;;;;;1.27;1.00;;;22.30;80.10;;;;;;5441303;26;20479;-45
2024/04/17 10:48:45;;;;;;;2.83;1.07;;;22.10;79.30;;;;;;5434815;26;20456;-44
2024/04/17 10:51:12;;;;;;;2.37;0.90;;;22.20;79.80;;;;;;5425654;26;20471;-49
2024/04/17 10:53:46;;;;;;;2.70;1.03;;;22.40;79.90;;;;;;5433113;26;20878;-44
2024/04/17 10:56:14;;;;;;;1.67;1.07;;;22.60;80.00;;;;;;5443435;26;20467;-43
2024/04/17 10:58:43;;;;;;;1.97;1.37;;;22.70;80.00;;;;;;5423626;26;20475;-50
2024/04/17 11:01:12;;;;;;;2.07;1.10;;;22.20;79.80;;;;;;5425261;26;20463;-46
2024/04/17 11:03:41;;;;;;;0.93;0.67;;;22.40;79.60;;;;;;5428174;26;20459;-44
2024/04/17 11:06:12;;;;;;;1.00;0.80;;;22.20;79.60;;;;;;5420467;26;20820;-43
2024/04/17 11:08:42;;;;;;;1.13;0.80;;;22.10;79.60;;;;;;5433167;26;20507;-47
2024/04/17 11:11:10;;;;;;;1.10;0.80;;;22.80;80.50;;;;;;5430994;26;20524;-48
2024/04/17 11:13:46;;;;;;;1.73;1.10;;;22.60;80.50;;;;;;5426429;26;20568;-46
2024/04/17 11:16:12;;;;;;;1.93;0.80;;;22.40;80.30;;;;;;5424732;26;20791;-43
2024/04/17 11:18:41;;;;;;;1.30;0.80;;;22.30;79.50;;;;;;5434518;26;20520;-45
2024/04/17 11:21:08;;;;;;;1.10;0.70;;;22.20;79.20;;;;;;5436280;26;20551;-46
2024/04/17 11:23:41;;;;;;;1.10;0.80;;;22.50;79.30;;;;;;5436193;26;20785;-49
2024/04/17 11:26:07;;;;;;;1.10;0.80;;;22.60;79.90;;;;;;5433105;26;21058;-44
2024/04/17 11:28:47;;;;;;;1.30;0.87;;;22.70;79.80;;;;;;5432889;26;20514;-43
2024/04/17 11:31:15;;;;;;;1.83;1.00;;;23.00;78.70;;;;;;5428420;26;21219;-48
2024/04/17 11:33:47;;;;;;;1.40;0.80;;;23.00;80.10;;;;;;5430061;26;20650;-50
2024/04/17 11:36:14;;;;;;;1.20;0.90;;;23.20;80.00;;;;;;5441719;26;20476;-47
2024/04/17 11:38:44;;;;;;;1.27;1.00;;;22.70;79.70;;;;;;5415675;26;20809;-49
2024/04/17 11:41:13;;;;;;;2.00;0.97;;;22.70;80.20;;;;;;5415055;26;20528;-49
2024/04/17 11:43:44;;;;;;;2.70;0.97;;;22.70;79.80;;;;;;5427092;26;21178;-50
2024/04/17 11:46:10;;;;;;;1.33;0.90;;;22.80;79.60;;;;;;5422206;26;21332;-47
2024/04/17 11:48:39;;;;;;;1.50;1.10;;;22.80;79.60;;;;;;5411890;26;22507;-49
2024/04/17 11:51:07;;;;;;;1.20;0.90;;;22.80;79.70;;;;;;5419162;26;20519;-48
2024/04/17 11:53:35;;;;;;;1.20;0.80;;;22.90;78.00;;;;;;5447439;26;20591;-43
2024/04/17 11:56:05;;;;;;;1.20;0.70;;;22.90;79.30;;;;;;5422422;26;20524;-44
2024/04/17 11:58:34;;;;;;;1.30;0.93;;;22.80;79.00;;;;;;5394778;26;20583;-47
2024/04/17 12:01:02;;;;;;;1.30;0.60;;;22.80;78.00;;;;;;5429115;26;21079;-47
2024/04/17 12:03:31;;;;;;;1.10;0.80;;;22.70;78.20;;;;;;5422459;26;20613;-47
2024/04/17 12:05:57;;;;;;;1.37;0.87;;;23.00;77.50;;;;;;5427958;26;20576;-49
2024/04/17 12:08:27;;;;;;;1.10;0.77;;;23.20;79.70;;;;;;5424200;26;20922;-49
2024/04/17 12:10:55;;;;;;;1.10;0.80;;;22.90;79.20;;;;;;5430743;26;20471;-45
2024/04/17 12:13:24;;;;;;;1.17;0.87;;;23.60;78.80;;;;;;5434800;26;20469;-47
2024/04/17 12:15:50;;;;;;;2.13;0.80;;;22.90;79.30;;;;;;5436562;26;20479;-51
2024/04/17 12:18:21;;;;;;;1.00;0.70;;;22.60;78.90;;;;;;5433479;26;20616;-41
2024/04/17 12:20:50;;;;;;;1.00;0.80;;;22.90;78.90;;;;;;5418705;26;20238;-45
2024/04/17 12:23:19;;;;;;;1.53;0.80;;;23.40;79.20;;;;;;5420184;26;21547;-42
2024/04/17 12:28:38;;;;;;;1.10;0.70;;;23.60;79.00;;;;;;5447452;26;20576;-45
2024/04/17 12:31:06;;;;;;;1.50;0.90;;;23.60;79.60;;;;;;5429014;26;20889;-46
2024/04/17 12:33:37;;;;;;;1.07;0.80;;;23.50;79.30;;;;;;5430074;26;20456;-50
2024/04/17 12:36:07;;;;;;;1.57;0.90;;;22.80;78.90;;;;;;5429765;26;21268;-46
2024/04/17 12:38:35;;;;;;;1.20;0.97;;;23.10;78.10;;;;;;5426175;26;20921;-42
2024/04/17 12:41:05;;;;;;;1.20;0.70;;;22.80;78.50;;;;;;5418325;26;20578;-41
2024/04/17 12:43:36;;;;;;;1.53;1.00;;;23.00;78.00;;;;;;5427888;26;20467;-47
2024/04/17 12:46:06;;;;;;;1.20;0.90;;;22.80;76.00;;;;;;5424830;26;20900;-46
2024/04/17 12:48:39;;;;;;;1.10;0.80;;;23.10;78.10;;;;;;5405213;26;20794;-43
2024/04/17 12:51:09;;;;;;;1.00;0.80;;;22.80;78.30;;;;;;5423525;26;20581;-49
2024/04/17 12:53:43;;;;;;;1.70;0.90;;;22.80;77.10;;;;;;5432319;26;21047;-43
2024/04/17 12:56:16;;;;;;;1.00;0.73;;;22.90;76.80;;;;;;5416080;26;20463;-42
2024/04/17 12:58:47;;;;;;;1.20;0.80;;;22.70;77.60;;;;;;5437808;26;20872;-45
2024/04/17 13:01:15;;;;;;;1.17;0.70;;;23.30;77.40;;;;;;5425141;26;21443;-46